Aérodrome :
LOGIN :

S'inscrire | Disclaimer

   EN    FR    IT 

 










Légende :    VFR   VFR Marginal   IFR   IFR Intensif   IFR Très Intensif
Visi : 
Plafond : 
>= 8 km
>= 3000ft
5 à 8 km
1000 à 3000 ft
1500m à 5 km
500 à 1000 ft
800 à 1500m
200 à 500 ft
< 800m
< 200 ft
Symboles :   Orages  Brouillard  Fortes neiges  Fortes précipitations  Vent > 20 kt
SIGMETs :   Divers  Orages  Givrage  Turbulence  Onde Orograph.  Cendres Volcan.






- Altitude de l'aérodrome : 466 ft


LHPA - Pápa

DERNIER METAR :
  • 070915Z 16008KT CAVOK 19/12 Q1028 NOSIG RMK BLU

METARs EXPIRÉS :
  • 070845Z 15006KT CAVOK 19/12 Q1028 NOSIG RMK BLU
  • 070815Z 14006KT 110V180 CAVOK 19/13 Q1029 NOSIG RMK BLU
  • 070745Z 13004KT CAVOK 18/12 Q1029 NOSIG RMK BLU
  • 070715Z 16002KT CAVOK 16/13 Q1029 NOSIG RMK BLU
  • 070645Z 00000KT CAVOK 14/13 Q1029 NOSIG RMK BLU

TAF TAF LHPA
Valide du 07 à 06h jusqu'au 08 à 06h UTC


070515Z 0706/0806 VRB03KT CAVOK
TEMPO 0706/0707 8000 MIFG BCFG NSC
BECMG 0707/0710 15007KT
TEMPO 0722/0806 5000 BR MIFG BCFG NSC
PROB30
TEMPO 0800/0806 VRB02KT 0800 FG BKN003



MET'MAP, la Météo Aéronautique d'un coup d'oeil ! - Copyright ORBIFLY Décembre 2007 - Disclaimer

ORBIFLY MET'MAP TEAM :

Programmation & Développement : Alexandra Zaïnal
Sur une idée originale de : Baudouin d'Aumeries
Soutien technique & logistique : Manuel Goepfert
Assistance : Marc-Olivier Méhu




SOURCES & CREDITS :

   NOAA